createdAt,value
2022-10-22T00:00:28.450Z,13.46
2022-10-22T00:02:32.287Z,13.47
2022-10-22T00:04:36.621Z,13.47
2022-10-22T00:06:40.401Z,13.49
2022-10-22T00:08:44.142Z,13.49
2022-10-22T00:10:47.870Z,13.49
2022-10-22T00:12:51.598Z,13.49
2022-10-22T00:14:56.584Z,13.49
2022-10-22T00:17:01.347Z,13.47
2022-10-22T00:19:05.322Z,13.47
2022-10-22T00:21:10.173Z,13.47
2022-10-22T00:23:14.248Z,13.45
2022-10-22T00:25:18.256Z,13.45
2022-10-22T00:27:22.144Z,13.45
2022-10-22T00:29:25.687Z,13.44
2022-10-22T00:31:31.153Z,13.44
2022-10-22T00:33:35.882Z,13.44
2022-10-22T00:35:40.037Z,13.43
2022-10-22T00:37:43.718Z,13.42
2022-10-22T00:39:47.439Z,13.43
2022-10-22T00:41:53.183Z,13.43
2022-10-22T00:44:00.079Z,13.41
2022-10-22T00:46:04.069Z,13.41
2022-10-22T00:48:12.163Z,13.41
2022-10-22T00:50:19.373Z,13.42
2022-10-22T00:52:23.553Z,13.41
2022-10-22T00:54:27.339Z,13.39
2022-10-22T00:56:31.041Z,13.39
2022-10-22T00:58:43.259Z,13.37
2022-10-22T01:00:47.219Z,13.36
2022-10-22T01:02:52.918Z,13.35
2022-10-22T01:04:58.226Z,13.35
2022-10-22T01:07:02.587Z,13.34
2022-10-22T01:09:18.973Z,13.34
2022-10-22T01:11:29.050Z,13.35
2022-10-22T01:13:44.663Z,13.34
2022-10-22T01:15:57.542Z,13.35
2022-10-22T01:18:07.759Z,13.34
2022-10-22T01:20:30.430Z,13.34
2022-10-22T01:22:38.223Z,13.33
2022-10-22T01:25:01.672Z,13.33
2022-10-22T01:27:26.380Z,13.33
2022-10-22T01:29:35.420Z,13.32
2022-10-22T01:31:45.340Z,13.30
2022-10-22T01:33:51.746Z,13.29
2022-10-22T01:35:56.704Z,13.29
2022-10-22T01:38:05.759Z,13.30
2022-10-22T01:40:12.536Z,13.30
2022-10-22T01:42:16.952Z,13.31
2022-10-22T01:44:28.290Z,13.30
2022-10-22T01:46:34.666Z,13.30
2022-10-22T01:48:50.201Z,13.30
2022-10-22T01:51:09.848Z,13.25
2022-10-22T01:53:27.058Z,13.24
2022-10-22T01:55:38.949Z,13.18
2022-10-22T01:57:52.003Z,13.15
2022-10-22T02:00:02.846Z,13.12
2022-10-22T02:02:15.242Z,13.10
2022-10-22T02:04:24.340Z,13.09
2022-10-22T02:06:31.270Z,13.05
2022-10-22T02:08:37.497Z,13.04
2022-10-22T02:10:43.990Z,13.03
2022-10-22T02:12:52.470Z,13.01
2022-10-22T02:14:59.018Z,12.99
2022-10-22T02:17:03.370Z,12.98
2022-10-22T02:19:17.238Z,12.94
2022-10-22T02:21:21.850Z,12.92
2022-10-22T02:23:26.108Z,12.92
2022-10-22T02:25:33.711Z,12.89
2022-10-22T02:27:44.401Z,12.88
2022-10-22T02:29:57.923Z,12.86
2022-10-22T02:32:05.573Z,12.85
2022-10-22T02:34:15.660Z,12.82
2022-10-22T02:36:21.084Z,12.80
2022-10-22T02:38:27.021Z,12.79
2022-10-22T02:40:32.870Z,12.77
2022-10-22T02:42:38.133Z,12.75
2022-10-22T02:44:42.274Z,12.72
2022-10-22T02:46:46.030Z,12.69
2022-10-22T02:48:50.494Z,12.68
2022-10-22T02:50:55.815Z,12.66
2022-10-22T02:52:59.637Z,12.64
2022-10-22T02:55:03.746Z,12.62
2022-10-22T02:57:07.998Z,12.57
2022-10-22T02:59:12.398Z,12.56
2022-10-22T03:01:16.461Z,12.54
2022-10-22T03:03:20.284Z,12.52
2022-10-22T03:05:24.292Z,12.51
2022-10-22T03:07:29.603Z,12.49
2022-10-22T03:09:33.379Z,12.47
2022-10-22T03:11:37.161Z,12.44
2022-10-22T03:13:41.001Z,12.43
2022-10-22T03:15:44.794Z,12.42
2022-10-22T03:17:48.409Z,12.40
2022-10-22T03:19:52.522Z,12.40
2022-10-22T03:21:59.013Z,12.39
2022-10-22T03:24:11.466Z,12.38
2022-10-22T03:26:16.223Z,12.37
2022-10-22T03:28:20.870Z,12.36
2022-10-22T03:30:24.539Z,12.33
2022-10-22T03:32:28.495Z,12.33
2022-10-22T03:34:32.490Z,12.29
2022-10-22T03:36:36.815Z,12.28
2022-10-22T03:38:42.060Z,12.25
2022-10-22T03:40:49.185Z,12.23
2022-10-22T03:42:53.029Z,12.21
2022-10-22T03:44:56.875Z,12.18
2022-10-22T03:47:02.677Z,12.15
2022-10-22T03:49:06.782Z,12.13
2022-10-22T03:51:11.055Z,12.11
2022-10-22T03:53:14.567Z,12.11
2022-10-22T03:55:17.942Z,12.08
2022-10-22T03:57:22.757Z,12.06
2022-10-22T03:59:26.263Z,12.04
2022-10-22T04:01:30.859Z,12.04
2022-10-22T04:03:34.484Z,12.03
2022-10-22T04:05:37.832Z,12.02
2022-10-22T04:07:41.657Z,11.99
2022-10-22T04:09:45.217Z,11.99
2022-10-22T04:11:48.770Z,11.99
2022-10-22T04:13:53.451Z,11.97
2022-10-22T04:15:56.810Z,11.97
2022-10-22T04:18:00.216Z,11.96
2022-10-22T04:20:03.958Z,11.94
2022-10-22T04:22:07.300Z,11.94
2022-10-22T04:24:10.872Z,11.92
2022-10-22T04:26:14.783Z,11.91
2022-10-22T04:28:18.142Z,11.89
2022-10-22T04:30:22.881Z,11.87
2022-10-22T04:32:26.282Z,11.87
2022-10-22T04:34:31.572Z,11.85
2022-10-22T04:36:35.597Z,11.84
2022-10-22T04:38:39.396Z,11.84
2022-10-22T04:40:42.855Z,11.81
2022-10-22T04:42:46.220Z,11.80
2022-10-22T04:44:49.707Z,11.77
2022-10-22T04:46:54.499Z,11.76
2022-10-22T04:49:00.606Z,11.74
2022-10-22T04:51:04.302Z,11.71
2022-10-22T04:53:08.538Z,11.68
2022-10-22T04:55:12.286Z,11.65
2022-10-22T04:57:16.900Z,11.62
2022-10-22T04:59:20.226Z,11.62
2022-10-22T05:01:26.059Z,11.57
2022-10-22T05:03:30.938Z,11.56
2022-10-22T05:05:34.498Z,11.54
2022-10-22T05:07:38.206Z,11.52
2022-10-22T05:09:42.499Z,11.50
2022-10-22T05:11:48.962Z,11.48
2022-10-22T05:13:54.893Z,11.45
2022-10-22T05:16:02.940Z,11.43
2022-10-22T05:18:08.802Z,11.39
2022-10-22T05:20:13.632Z,11.35
2022-10-22T05:22:16.997Z,11.34
2022-10-22T05:24:20.264Z,11.32
2022-10-22T05:26:25.274Z,11.27
2022-10-22T05:28:28.735Z,11.26
2022-10-22T05:30:32.828Z,11.24
2022-10-22T05:32:36.845Z,11.23
2022-10-22T05:34:40.297Z,11.21
2022-10-22T05:36:45.203Z,11.19
2022-10-22T05:38:49.125Z,11.15
2022-10-22T05:41:01.514Z,11.14
2022-10-22T05:43:04.814Z,11.11
2022-10-22T05:45:09.098Z,11.10
2022-10-22T05:47:12.343Z,11.08
2022-10-22T05:49:16.938Z,11.07
2022-10-22T05:51:20.866Z,11.04
2022-10-22T05:53:25.661Z,11.03
2022-10-22T05:55:28.980Z,11.02
2022-10-22T05:57:32.507Z,11.00
2022-10-22T05:59:35.909Z,10.98
2022-10-22T06:01:41.077Z,10.98
2022-10-22T06:03:44.676Z,10.96
2022-10-22T06:05:48.066Z,10.96
2022-10-22T06:07:51.436Z,10.95
2022-10-22T06:09:56.251Z,10.95
2022-10-22T06:12:00.199Z,10.93
2022-10-22T06:14:03.716Z,10.92
2022-10-22T06:16:07.097Z,10.92
2022-10-22T06:18:11.023Z,10.93
2022-10-22T06:20:14.917Z,10.92
2022-10-22T06:22:18.215Z,10.92
2022-10-22T06:24:21.437Z,10.91
2022-10-22T06:26:26.319Z,10.91
2022-10-22T06:28:29.880Z,10.92
2022-10-22T06:30:33.171Z,10.91
2022-10-22T06:32:36.451Z,10.92
2022-10-22T06:34:39.909Z,10.90
2022-10-22T06:36:45.308Z,10.91
2022-10-22T06:38:48.840Z,10.92
2022-10-22T06:40:52.109Z,10.91
2022-10-22T06:42:56.923Z,10.91
2022-10-22T06:47:08.607Z,10.90
2022-10-22T06:49:15.092Z,10.89
2022-10-22T06:51:19.193Z,10.89
2022-10-22T06:53:22.468Z,10.87
2022-10-22T06:55:25.729Z,10.86
2022-10-22T06:57:28.980Z,10.83
2022-10-22T06:59:33.880Z,10.84
2022-10-22T07:01:37.234Z,10.83
2022-10-22T07:03:41.341Z,10.83
2022-10-22T07:05:44.664Z,10.83
2022-10-22T07:07:47.918Z,10.86
2022-10-22T07:09:51.543Z,10.86
2022-10-22T07:11:54.894Z,10.87
2022-10-22T07:14:00.034Z,10.88
2022-10-22T07:16:05.550Z,10.88
2022-10-22T07:18:08.787Z,10.88
2022-10-22T07:20:12.962Z,10.88
2022-10-22T07:22:16.280Z,10.90
2022-10-22T07:24:19.669Z,10.88
2022-10-22T07:26:25.133Z,10.88
2022-10-22T07:28:28.758Z,10.89
2022-10-22T07:30:31.991Z,10.89
2022-10-22T07:32:37.218Z,10.90
2022-10-22T07:34:43.111Z,10.88
2022-10-22T07:36:47.337Z,10.88
2022-10-22T07:38:55.815Z,10.89
2022-10-22T07:40:59.419Z,10.89
2022-10-22T07:43:03.091Z,10.89
2022-10-22T07:45:07.262Z,10.91
2022-10-22T07:47:10.491Z,10.90
2022-10-22T07:49:15.178Z,10.92
2022-10-22T07:51:19.174Z,10.92
2022-10-22T07:53:22.774Z,10.93
2022-10-22T07:55:26.356Z,10.95
2022-10-22T07:57:29.762Z,10.94
2022-10-22T07:59:33.362Z,10.95
2022-10-22T08:01:36.754Z,10.96
2022-10-22T08:03:40.141Z,10.97
2022-10-22T08:05:45.281Z,10.98
2022-10-22T08:07:48.769Z,10.99
2022-10-22T08:09:52.169Z,11.01
2022-10-22T08:11:55.659Z,11.02
2022-10-22T08:13:59.350Z,11.05
2022-10-22T08:16:03.268Z,11.05
2022-10-22T08:18:07.234Z,11.06
2022-10-22T08:20:12.951Z,11.07
2022-10-22T08:22:18.134Z,11.09
2022-10-22T08:24:21.444Z,11.12
2022-10-22T08:26:24.826Z,11.15
2022-10-22T08:28:29.809Z,11.21
2022-10-22T08:30:34.164Z,11.28
2022-10-22T08:32:37.750Z,11.40
2022-10-22T08:34:41.265Z,11.51
2022-10-22T08:36:44.823Z,11.64
2022-10-22T08:38:49.540Z,11.74
2022-10-22T08:40:55.574Z,11.84
2022-10-22T08:43:15.094Z,11.97
2022-10-22T08:45:25.650Z,12.05
2022-10-22T08:47:47.991Z,12.12
2022-10-22T08:49:51.612Z,12.23
2022-10-22T08:51:56.285Z,12.38
2022-10-22T08:54:15.739Z,12.56
2022-10-22T08:56:19.130Z,12.75
2022-10-22T08:58:30.760Z,12.92
2022-10-22T09:00:38.244Z,13.08
2022-10-22T09:02:52.318Z,13.20
2022-10-22T09:05:03.789Z,13.31
2022-10-22T09:07:07.814Z,13.41
2022-10-22T09:09:16.947Z,13.44
2022-10-22T09:11:27.349Z,13.42
2022-10-22T09:13:31.432Z,13.36
2022-10-22T09:15:34.900Z,13.32
2022-10-22T09:17:47.058Z,13.23
2022-10-22T09:20:04.165Z,13.12
2022-10-22T09:22:24.061Z,13.07
2022-10-22T09:24:38.496Z,13.04
2022-10-22T09:26:43.049Z,13.00
2022-10-22T09:28:51.783Z,12.94
2022-10-22T09:30:55.935Z,12.91
2022-10-22T09:33:03.555Z,12.88
2022-10-22T09:35:12.981Z,12.92
2022-10-22T09:37:20.038Z,13.02
2022-10-22T09:39:25.861Z,13.14
2022-10-22T09:41:32.092Z,13.29
2022-10-22T09:43:36.406Z,13.42
2022-10-22T09:45:40.272Z,13.52
2022-10-22T09:48:00.989Z,13.61
2022-10-22T09:50:23.021Z,13.73
2022-10-22T09:52:32.328Z,13.80
2022-10-22T09:54:44.185Z,13.89
2022-10-22T09:56:56.091Z,13.99
2022-10-22T09:59:00.282Z,14.14
2022-10-22T10:01:04.307Z,14.29
2022-10-22T10:03:08.404Z,14.40
2022-10-22T10:05:21.211Z,14.49
2022-10-22T10:07:26.971Z,14.59
2022-10-22T10:09:36.660Z,14.69
2022-10-22T10:11:45.070Z,14.82
2022-10-22T10:14:00.962Z,14.92
2022-10-22T10:16:14.352Z,15.03
2022-10-22T10:18:26.902Z,15.16
2022-10-22T10:20:41.271Z,15.28
2022-10-22T10:22:56.554Z,15.35
2022-10-22T10:25:21.386Z,15.39
2022-10-22T10:27:32.515Z,15.42
2022-10-22T10:29:48.734Z,15.46
2022-10-22T10:32:08.048Z,15.51
2022-10-22T10:34:24.375Z,15.56
2022-10-22T10:36:37.330Z,15.56
2022-10-22T10:38:57.193Z,15.60
2022-10-22T10:41:07.738Z,15.63
2022-10-22T10:43:15.356Z,15.64
2022-10-22T10:45:26.859Z,15.71
2022-10-22T10:47:55.163Z,15.73
2022-10-22T10:50:14.561Z,15.79
2022-10-22T10:52:27.722Z,15.81
2022-10-22T10:56:53.944Z,15.81
2022-10-22T10:59:06.488Z,15.80
2022-10-22T11:01:23.306Z,15.76
2022-10-22T11:04:02.082Z,15.74
2022-10-22T11:06:11.288Z,15.76
2022-10-22T11:08:19.827Z,15.77
2022-10-22T11:10:30.162Z,15.76
2022-10-22T11:12:40.901Z,15.72
2022-10-22T11:14:58.251Z,15.72
2022-10-22T11:17:06.290Z,15.73
2022-10-22T11:19:22.724Z,15.74
2022-10-22T11:21:35.995Z,15.74
2022-10-22T11:23:46.720Z,15.74
2022-10-22T11:25:53.542Z,15.75
2022-10-22T11:28:09.089Z,15.76
2022-10-22T11:30:16.970Z,15.72
2022-10-22T11:32:26.747Z,15.71
2022-10-22T11:34:37.863Z,15.67
2022-10-22T11:36:43.532Z,15.63
2022-10-22T11:38:47.785Z,15.56
2022-10-22T11:40:56.226Z,15.55
2022-10-22T11:43:01.379Z,15.55
2022-10-22T11:45:29.006Z,15.59
2022-10-22T11:47:38.635Z,15.60
2022-10-22T11:49:56.824Z,15.57
2022-10-22T11:52:25.180Z,15.50
2022-10-22T11:54:43.731Z,15.45
2022-10-22T11:56:47.767Z,15.43
2022-10-22T11:58:54.012Z,15.42
2022-10-22T12:01:07.364Z,15.38
2022-10-22T12:03:25.627Z,15.36
2022-10-22T12:05:38.413Z,15.36
2022-10-22T12:07:54.671Z,15.37
2022-10-22T12:10:00.274Z,15.38
2022-10-22T12:12:16.647Z,15.36
2022-10-22T12:14:27.167Z,15.33
2022-10-22T12:16:55.191Z,15.32
2022-10-22T12:19:14.472Z,15.30
2022-10-22T12:21:19.848Z,15.26
2022-10-22T12:23:31.765Z,15.25
2022-10-22T12:25:37.060Z,15.24
2022-10-22T12:27:42.939Z,15.21
2022-10-22T12:29:47.168Z,15.21
2022-10-22T12:31:51.403Z,15.21
2022-10-22T12:33:59.046Z,15.19
2022-10-22T12:36:05.039Z,15.20
2022-10-22T12:38:14.842Z,15.22
2022-10-22T12:40:21.748Z,15.23
2022-10-22T12:42:26.911Z,15.25
2022-10-22T12:44:30.874Z,15.24
2022-10-22T12:46:37.348Z,15.27
2022-10-22T12:48:45.044Z,15.26
2022-10-22T12:50:52.636Z,15.27
2022-10-22T12:52:57.765Z,15.26
2022-10-22T12:55:01.534Z,15.23
2022-10-22T12:57:05.485Z,15.21
2022-10-22T12:59:17.897Z,15.17
2022-10-22T13:01:21.637Z,15.16
2022-10-22T13:03:29.851Z,15.16
2022-10-22T13:05:39.240Z,15.18
2022-10-22T13:07:45.218Z,15.20
2022-10-22T13:09:59.858Z,15.22
2022-10-22T13:12:07.116Z,15.23
2022-10-22T13:14:21.488Z,15.27
2022-10-22T13:16:28.110Z,15.30
2022-10-22T13:18:34.794Z,15.32
2022-10-22T13:20:38.667Z,15.36
2022-10-22T13:22:43.608Z,15.43
2022-10-22T13:24:52.083Z,15.47
2022-10-22T13:26:56.401Z,15.54
2022-10-22T13:29:02.521Z,15.61
2022-10-22T13:31:13.345Z,15.66
2022-10-22T13:33:26.491Z,15.71
2022-10-22T13:35:32.267Z,15.74
2022-10-22T13:37:38.214Z,15.78
2022-10-22T13:39:42.290Z,15.78
2022-10-22T13:41:48.080Z,15.81
2022-10-22T13:43:52.187Z,15.82
2022-10-22T13:45:59.061Z,15.79
2022-10-22T13:48:02.774Z,15.78
2022-10-22T13:50:14.926Z,15.78
2022-10-22T13:52:42.235Z,15.77
2022-10-22T13:54:45.928Z,15.77
2022-10-22T13:56:51.074Z,15.74
2022-10-22T13:58:54.643Z,15.73
2022-10-22T14:01:00.916Z,15.73
2022-10-22T14:03:04.690Z,15.73
2022-10-22T14:05:09.745Z,15.71
2022-10-22T14:07:16.899Z,15.66
2022-10-22T14:09:27.919Z,15.67
2022-10-22T14:11:32.915Z,15.65
2022-10-22T14:13:38.527Z,15.65
2022-10-22T14:15:43.404Z,15.63
2022-10-22T14:17:55.725Z,15.64
2022-10-22T14:19:59.538Z,15.64
2022-10-22T14:22:06.330Z,15.64
2022-10-22T14:24:13.210Z,15.60
2022-10-22T14:26:23.983Z,15.55
2022-10-22T14:28:29.645Z,15.50
2022-10-22T14:30:36.914Z,15.47
2022-10-22T14:32:41.363Z,15.44
2022-10-22T14:34:47.068Z,15.44
2022-10-22T14:36:51.159Z,15.43
2022-10-22T14:38:54.930Z,15.42
2022-10-22T14:41:01.572Z,15.43
2022-10-22T14:43:05.434Z,15.45
2022-10-22T14:45:14.449Z,15.47
2022-10-22T14:47:20.066Z,15.47
2022-10-22T14:49:24.017Z,15.50
2022-10-22T14:51:28.938Z,15.50
2022-10-22T14:53:33.015Z,15.49
2022-10-22T14:55:36.754Z,15.48
2022-10-22T14:57:41.168Z,15.44
2022-10-22T14:59:45.243Z,15.40
2022-10-22T15:01:48.936Z,15.35
2022-10-22T15:03:54.619Z,15.32
2022-10-22T15:05:58.652Z,15.30
2022-10-22T15:08:02.820Z,15.28
2022-10-22T15:10:08.391Z,15.28
2022-10-22T15:12:12.352Z,15.29
2022-10-22T15:14:16.564Z,15.31
2022-10-22T15:16:21.004Z,15.36
2022-10-22T15:18:25.928Z,15.43
2022-10-22T15:20:31.451Z,15.50
2022-10-22T15:22:36.568Z,15.60
2022-10-22T15:24:41.072Z,15.69
2022-10-22T15:26:45.028Z,15.77
2022-10-22T15:28:49.157Z,15.84
2022-10-22T15:30:56.824Z,15.90
2022-10-22T15:33:01.574Z,15.98
2022-10-22T15:35:06.153Z,16.00
2022-10-22T15:37:14.184Z,16.01
2022-10-22T15:39:17.975Z,16.03
2022-10-22T15:41:22.064Z,16.04
2022-10-22T15:43:26.411Z,16.03
2022-10-22T15:45:30.467Z,16.06
2022-10-22T15:47:34.205Z,16.08
2022-10-22T15:49:40.054Z,16.08
2022-10-22T15:51:43.624Z,16.07
2022-10-22T15:53:53.125Z,16.06
2022-10-22T15:55:56.782Z,16.05
2022-10-22T15:58:03.272Z,16.04
2022-10-22T16:00:09.330Z,16.02
2022-10-22T16:02:16.576Z,16.01
2022-10-22T16:04:20.739Z,15.99
2022-10-22T16:06:24.543Z,15.98
2022-10-22T16:08:29.047Z,15.98
2022-10-22T16:10:34.195Z,15.97
2022-10-22T16:12:38.075Z,15.95
2022-10-22T16:14:42.284Z,15.93
2022-10-22T16:16:47.945Z,15.90
2022-10-22T16:18:51.885Z,15.86
2022-10-22T16:20:55.636Z,15.85
2022-10-22T16:22:59.542Z,15.83
2022-10-22T16:25:03.071Z,15.83
2022-10-22T16:27:08.409Z,15.81
2022-10-22T16:29:12.960Z,15.78
2022-10-22T16:31:20.061Z,15.73
2022-10-22T16:33:24.203Z,15.68
2022-10-22T16:35:28.288Z,15.62
2022-10-22T16:37:32.564Z,15.53
2022-10-22T16:39:35.945Z,15.49
2022-10-22T16:41:39.730Z,15.45
2022-10-22T16:43:47.276Z,15.40
2022-10-22T16:45:51.049Z,15.37
2022-10-22T16:47:55.176Z,15.32
2022-10-22T16:50:01.173Z,15.29
2022-10-22T16:52:05.287Z,15.26
2022-10-22T16:54:11.439Z,15.25
2022-10-22T16:56:18.505Z,15.21
2022-10-22T16:58:22.781Z,15.19
2022-10-22T17:00:28.370Z,15.16
2022-10-22T17:02:59.982Z,15.12
2022-10-22T17:05:05.738Z,15.10
2022-10-22T17:07:09.550Z,15.08
2022-10-22T17:09:15.233Z,15.04
2022-10-22T17:11:22.541Z,15.03
2022-10-22T17:13:28.452Z,15.01
2022-10-22T17:15:34.729Z,14.98
2022-10-22T17:17:39.587Z,14.94
2022-10-22T17:19:43.483Z,14.87
2022-10-22T17:21:49.092Z,14.80
2022-10-22T17:23:57.668Z,14.76
2022-10-22T17:26:06.159Z,14.72
2022-10-22T17:28:13.576Z,14.66
2022-10-22T17:30:23.412Z,14.62
2022-10-22T17:32:32.367Z,14.55
2022-10-22T17:34:36.094Z,14.50
2022-10-22T17:36:39.943Z,14.47
2022-10-22T17:38:45.515Z,14.46
2022-10-22T17:40:49.689Z,14.43
2022-10-22T17:42:53.794Z,14.37
2022-10-22T17:44:57.639Z,14.32
2022-10-22T17:47:02.060Z,14.30
2022-10-22T17:49:11.201Z,14.29
2022-10-22T17:51:15.146Z,14.28
2022-10-22T17:53:18.709Z,14.26
2022-10-22T17:55:22.558Z,14.23
2022-10-22T17:57:26.448Z,14.20
2022-10-22T17:59:30.184Z,14.17
2022-10-22T18:01:36.542Z,14.12
2022-10-22T18:03:40.361Z,14.07
2022-10-22T18:05:44.990Z,14.05
2022-10-22T18:07:48.634Z,14.01
2022-10-22T18:09:52.261Z,14.01
2022-10-22T18:11:57.083Z,14.00
2022-10-22T18:14:01.232Z,14.00
2022-10-22T18:16:05.611Z,14.02
2022-10-22T18:18:09.748Z,14.04
2022-10-22T18:20:16.665Z,14.06
2022-10-22T18:22:21.860Z,14.06
2022-10-22T18:24:25.641Z,14.02
2022-10-22T18:26:30.028Z,14.00
2022-10-22T18:28:36.482Z,14.00
2022-10-22T18:30:41.193Z,14.01
2022-10-22T18:32:45.762Z,14.01
2022-10-22T18:34:49.744Z,14.00
2022-10-22T18:36:53.695Z,14.00
2022-10-22T18:39:00.839Z,14.02
2022-10-22T18:41:04.548Z,13.98
2022-10-22T18:43:08.125Z,13.96
2022-10-22T18:45:12.226Z,13.96
2022-10-22T18:47:16.744Z,13.93
2022-10-22T18:49:20.792Z,13.92
2022-10-22T18:51:25.614Z,13.94
2022-10-22T18:53:29.892Z,13.94
2022-10-22T18:55:37.776Z,13.96
2022-10-22T18:57:41.775Z,13.97
2022-10-22T18:59:45.520Z,13.97
2022-10-22T19:01:49.734Z,13.96
2022-10-22T19:03:53.792Z,13.94
2022-10-22T19:06:02.988Z,13.92
2022-10-22T19:08:09.995Z,13.92
2022-10-22T19:10:14.076Z,13.88
2022-10-22T19:12:23.084Z,13.85
2022-10-22T19:14:27.306Z,13.81
2022-10-22T19:16:30.979Z,13.77
2022-10-22T19:18:35.538Z,13.76
2022-10-22T19:20:39.399Z,13.74
2022-10-22T19:22:44.461Z,13.73
2022-10-22T19:24:50.729Z,13.73
2022-10-22T19:26:54.929Z,13.71
2022-10-22T19:29:00.984Z,13.71
2022-10-22T19:31:07.974Z,13.72
2022-10-22T19:33:11.756Z,13.70
2022-10-22T19:35:18.419Z,13.68
2022-10-22T19:37:27.340Z,13.69
2022-10-22T19:39:31.176Z,13.68
2022-10-22T19:41:35.570Z,13.70
2022-10-22T19:43:39.338Z,13.71
2022-10-22T19:45:44.521Z,13.73
2022-10-22T19:47:49.012Z,13.73
2022-10-22T19:49:53.856Z,13.75
2022-10-22T19:51:59.649Z,13.76
2022-10-22T19:54:06.646Z,13.77
2022-10-22T19:56:12.746Z,13.78
2022-10-22T19:58:17.057Z,13.80
2022-10-22T20:00:21.681Z,13.80
2022-10-22T20:02:26.832Z,13.80
2022-10-22T20:04:30.790Z,13.79
2022-10-22T20:06:34.619Z,13.80
2022-10-22T20:08:39.970Z,13.79
2022-10-22T20:10:45.190Z,13.81
2022-10-22T20:12:49.203Z,13.84
2022-10-22T20:14:54.193Z,13.87
2022-10-22T20:16:57.998Z,13.91
2022-10-22T20:19:07.701Z,13.88
2022-10-22T20:21:15.809Z,13.91
2022-10-22T20:23:19.961Z,13.92
2022-10-22T20:25:23.637Z,13.94
2022-10-22T20:27:27.357Z,13.96
2022-10-22T20:29:31.218Z,13.96
2022-10-22T20:31:36.266Z,13.94
2022-10-22T20:33:39.804Z,13.94
2022-10-22T20:35:45.360Z,13.94
2022-10-22T20:37:49.729Z,13.93
2022-10-22T20:39:53.540Z,13.92
2022-10-22T20:41:58.419Z,13.92
2022-10-22T20:44:02.779Z,13.93
2022-10-22T20:46:06.893Z,13.92
2022-10-22T20:48:10.760Z,13.92
2022-10-22T20:50:23.340Z,13.93
2022-10-22T20:52:28.332Z,13.94
2022-10-22T20:54:32.312Z,13.95
2022-10-22T20:56:36.902Z,13.95
2022-10-22T20:58:42.140Z,13.94
2022-10-22T21:00:46.278Z,13.95
2022-10-22T21:02:50.379Z,13.94
2022-10-22T21:04:54.098Z,13.92
2022-10-22T21:06:58.586Z,13.92
2022-10-22T21:09:03.785Z,13.91
2022-10-22T21:11:07.443Z,13.91
2022-10-22T21:13:11.161Z,13.90
2022-10-22T21:15:14.833Z,13.88
2022-10-22T21:17:18.499Z,13.89
2022-10-22T21:19:23.291Z,13.88
2022-10-22T21:21:27.336Z,13.88
2022-10-22T21:23:31.274Z,13.88
2022-10-22T21:25:40.676Z,13.86
2022-10-22T21:27:46.947Z,13.82
2022-10-22T21:29:50.603Z,13.81
2022-10-22T21:31:54.839Z,13.80
2022-10-22T21:33:58.539Z,13.77
2022-10-22T21:36:02.924Z,13.75
2022-10-22T21:38:08.026Z,13.74
2022-10-22T21:40:13.444Z,13.72
2022-10-22T21:42:19.020Z,13.70
2022-10-22T21:44:22.821Z,13.69
2022-10-22T21:46:28.683Z,13.69
2022-10-22T21:48:32.546Z,13.68
2022-10-22T21:50:39.631Z,13.67
2022-10-22T21:52:43.407Z,13.64
2022-10-22T21:54:49.164Z,13.64
2022-10-22T21:56:53.677Z,13.63
2022-10-22T21:59:00.771Z,13.62
2022-10-22T22:01:11.419Z,13.61
2022-10-22T22:03:26.967Z,13.56
2022-10-22T22:05:38.719Z,13.53
2022-10-22T22:07:43.843Z,13.54
2022-10-22T22:09:53.533Z,13.56
2022-10-22T22:12:11.989Z,13.58
2022-10-22T22:14:27.754Z,13.58
2022-10-22T22:16:59.918Z,13.58
2022-10-22T22:19:35.568Z,13.56
2022-10-22T22:25:24.603Z,13.54
2022-10-22T22:28:34.638Z,13.50
2022-10-22T22:30:27.971Z,13.49
2022-10-22T22:32:56.161Z,13.51
2022-10-22T22:42:55.294Z,13.86
2022-10-22T22:48:44.205Z,13.95
2022-10-22T22:56:46.272Z,13.93
2022-10-22T22:59:26.932Z,14.00
2022-10-22T23:16:39.962Z,14.06
2022-10-22T23:18:53.007Z,14.10
2022-10-22T23:22:35.303Z,14.11
2022-10-22T23:36:08.392Z,13.92
2022-10-22T23:38:17.261Z,13.90
2022-10-22T23:44:17.396Z,13.80
